Morland, Kansas
Current Conditions -  °F | °C
As of 10:53 AM on Thursday 30 Oct 2014 (Local Time) from KHLC Reporting Station
Light Rain Light Rain  
Wind Chill: 58°   Ceiling: Unl
Heat Index: 58°   Visibility: 10mi
Dew Point: 31°   Wind: 15mph
Humidity: 36%   Direction: 320°NW
Pressure: 30.25"   Gusts: NA
Location:  39.35°N, 100.08°W
Report Text: KHLC 301553Z AUTO 32013KT 10SM -RA CLR 14/M01 A3025 RMK AO2 RAB28 SLP240 P0000 T01441006
Loading
Personal Weather Stations






























Interactive Weather Map
Tropical Storm Tracking
New forecast layout! Learn more

10-Day Weather Forecast

Advertisements
Track Severe Weather on mobile